Flight Track Log - Related Links

Times and Time Zones

All times are in EDT time to prevent confusion due to time zone crossing. See the KAP5 flight status page for this flight to view local times or setup timezone preferences in your user account.


Time Position Orientation Groundspeed Altitude Reporting Facility
EDT Latitude Longitude Course Direction KTS MPH feet Rate Location/Type
Fri 12:41:00 PM 42.3667 -71.0167 216° Southwest 114 131 500  Level KA90
Fri 12:42:18 PM 42.3333 -71.0500 216° Southwest 110 127 1,900 957 Climbing KA90
Fri 12:43:18 PM 42.3167 -71.0833 236° Southwest 114 131 2,700 737 Climbing KA90
Fri 12:44:12 PM 42.2833 -71.1000 200° South 113 130 3,300 684 Climbing KA90
Fri 12:45:12 PM 42.2667 -71.1333 236° Southwest 123 142 4,000 600 Climbing KA90
Fri 12:46:12 PM 42.2167 -71.1167 166° South 143 165 4,500 500 Climbing KA90
Fri 12:47:12 PM 42.1833 -71.1167 180° South 146 168 5,000 250 Climbing KA90
Fri 12:48:12 PM 42.1500 -71.0833 143° Southeast 172 198 5,000  Level KA90
Fri 12:49:13 PM 42.1500 -71.0167 90° East 172 198 5,000  Level KA90
Fri 12:50:07 PM 42.1333 -70.9667 114° Southeast 165 190 5,000  Level KA90
Fri 12:51:13 PM 42.1333 -70.9000 90° East 166 191 5,000  Level KA90
Fri 12:52:13 PM 42.1167 -70.8333 109° East 168 193 5,000  Level KA90
Fri 12:53:13 PM 42.1167 -70.7667 90° East 169 194 5,000  Level KA90
Fri 12:54:07 PM 42.1000 -70.7167 114° Southeast 167 192 5,000  Level KA90
Fri 12:55:07 PM 42.1000 -70.6500 90° East 171 197 5,000  Level KA90
Fri 12:56:07 PM 42.0833 -70.5833 109° East 169 194 5,000  Level KA90
Fri 12:57:13 PM 42.0833 -70.5167 90° East 171 197 5,000  Level KA90
Fri 12:58:13 PM 42.0667 -70.4500 109° East 171 197 5,000  Level KA90
Fri 01:00:00 PM 42.0581 -70.3636 99° East  Level FlightAware Approximate
Fri 01:07:00 PM 42.0113 -70.0333 180° South  Level FlightAware Approximate
Fri 01:08:00 PM 41.9749 -70.0333 180° South  Level FlightAware Approximate
Fri 01:09:00 PM 41.9386 -70.0333 180° South  Level FlightAware Approximate
Fri 01:10:00 PM 41.9023 -70.0333 180° South  Level FlightAware Approximate
Fri 01:11:00 PM 41.8660 -70.0333 180° South  Level FlightAware Approximate
Fri 01:12:00 PM 41.8297 -70.0333 180° South  Level FlightAware Approximate
Fri 01:13:00 PM 41.7933 -70.0333 180° South  Level FlightAware Approximate
Fri 01:14:00 PM 41.7570 -70.0333 180° South  Level FlightAware Approximate
Fri 01:15:00 PM 41.7207 -70.0333 180° South  Level FlightAware Approximate
Fri 01:16:00 PM 41.6844 -70.0333 180° South  Level FlightAware Approximate
Fri 01:17:00 PM 41.6481 -70.0333 180° South  Level FlightAware Approximate
Fri 01:18:00 PM 41.6117 -70.0333 180° South  Level FlightAware Approximate
Fri 01:19:00 PM 41.5757 -70.0382 189° South  Level FlightAware Approximate
Fri 01:20:00 PM 41.5398 -70.0454 189° South  Level FlightAware Approximate
Fri 01:21:00 PM 41.5038 -70.0500 180° South  Level FlightAware Approximate
Fri 01:22:00 PM 41.4674 -70.0500 180° South  Level FlightAware Approximate
Fri 01:23:00 PM 41.4311 -70.0500 180° South  Level FlightAware Approximate
Fri 01:24:00 PM 41.3948 -70.0500 180° South  Level FlightAware Approximate
Fri 01:25:00 PM 41.3585 -70.0500 180° South  Level FlightAware Approximate
Fri 01:26:00 PM 41.3222 -70.0500 180° South  Level FlightAware Approximate
Fri 01:27:00 PM 41.2859 -70.0500 180° South  Level FlightAware Approximate
Fri 01:28:00 PM 41.2500 -70.0500 180° South  Level FlightAware Approximate
Fri 01:29:00 PM 41.2531 -70.0603 180° South  Level Estimated
Fri 01:30:00 PM 41.2531 -70.0603 180° South  Level Estimated
Fri 01:31:00 PM 41.2531 -70.0603 180° South  Level Estimated

Login

Don't have an account? Register now (free) for customized features, flight alerts, and more!